sensor_id;sensor_type;location;lat;lon;timestamp;P1;durP1;ratioP1;P2;durP2;ratioP2
15254;SDS011;7730;49.610;11.136;2023-11-19T00:00:06;2.75;;;1.70;;
15254;SDS011;7730;49.610;11.136;2023-11-19T00:02:36;3.00;;;1.83;;
15254;SDS011;7730;49.610;11.136;2023-11-19T00:05:03;3.28;;;1.73;;
15254;SDS011;7730;49.610;11.136;2023-11-19T00:07:34;2.08;;;1.73;;
15254;SDS011;7730;49.610;11.136;2023-11-19T00:10:01;2.20;;;1.70;;
15254;SDS011;7730;49.610;11.136;2023-11-19T00:12:37;2.72;;;1.90;;
15254;SDS011;7730;49.610;11.136;2023-11-19T00:15:05;1.80;;;1.63;;
15254;SDS011;7730;49.610;11.136;2023-11-19T00:17:36;2.20;;;1.80;;
15254;SDS011;7730;49.610;11.136;2023-11-19T00:20:03;2.08;;;1.80;;
15254;SDS011;7730;49.610;11.136;2023-11-19T00:22:31;2.97;;;1.80;;
15254;SDS011;7730;49.610;11.136;2023-11-19T00:24:58;2.47;;;1.80;;
15254;SDS011;7730;49.610;11.136;2023-11-19T00:27:25;2.45;;;1.80;;
15254;SDS011;7730;49.610;11.136;2023-11-19T00:29:53;2.80;;;1.80;;
15254;SDS011;7730;49.610;11.136;2023-11-19T00:32:20;2.38;;;1.70;;
15254;SDS011;7730;49.610;11.136;2023-11-19T00:34:47;1.83;;;1.60;;
15254;SDS011;7730;49.610;11.136;2023-11-19T00:37:14;2.63;;;1.75;;
15254;SDS011;7730;49.610;11.136;2023-11-19T00:39:41;3.83;;;1.70;;
15254;SDS011;7730;49.610;11.136;2023-11-19T00:42:09;2.08;;;1.70;;
15254;SDS011;7730;49.610;11.136;2023-11-19T00:44:36;1.95;;;1.70;;
15254;SDS011;7730;49.610;11.136;2023-11-19T00:47:04;2.63;;;1.85;;
15254;SDS011;7730;49.610;11.136;2023-11-19T00:49:31;2.80;;;1.75;;
15254;SDS011;7730;49.610;11.136;2023-11-19T00:51:58;2.72;;;1.80;;
15254;SDS011;7730;49.610;11.136;2023-11-19T00:54:27;2.67;;;1.70;;
15254;SDS011;7730;49.610;11.136;2023-11-19T00:56:54;2.28;;;1.70;;
15254;SDS011;7730;49.610;11.136;2023-11-19T00:59:21;2.90;;;1.85;;
15254;SDS011;7730;49.610;11.136;2023-11-19T01:01:48;1.95;;;1.73;;
15254;SDS011;7730;49.610;11.136;2023-11-19T01:04:17;2.47;;;1.70;;
15254;SDS011;7730;49.610;11.136;2023-11-19T01:06:44;2.45;;;1.70;;
15254;SDS011;7730;49.610;11.136;2023-11-19T01:09:11;1.85;;;1.60;;
15254;SDS011;7730;49.610;11.136;2023-11-19T01:11:38;1.65;;;1.55;;
15254;SDS011;7730;49.610;11.136;2023-11-19T01:14:05;2.40;;;1.67;;
15254;SDS011;7730;49.610;11.136;2023-11-19T01:16:32;2.28;;;1.42;;
15254;SDS011;7730;49.610;11.136;2023-11-19T01:18:59;1.65;;;1.55;;
15254;SDS011;7730;49.610;11.136;2023-11-19T01:21:30;2.35;;;1.50;;
15254;SDS011;7730;49.610;11.136;2023-11-19T01:23:58;1.50;;;1.40;;
15254;SDS011;7730;49.610;11.136;2023-11-19T01:26:26;2.40;;;1.60;;
15254;SDS011;7730;49.610;11.136;2023-11-19T01:28:53;1.60;;;1.50;;
15254;SDS011;7730;49.610;11.136;2023-11-19T01:31:20;2.67;;;1.53;;
15254;SDS011;7730;49.610;11.136;2023-11-19T01:33:47;2.15;;;1.50;;
15254;SDS011;7730;49.610;11.136;2023-11-19T01:36:14;1.55;;;1.45;;
15254;SDS011;7730;49.610;11.136;2023-11-19T01:38:42;2.17;;;1.40;;
15254;SDS011;7730;49.610;11.136;2023-11-19T01:41:09;2.17;;;1.60;;
15254;SDS011;7730;49.610;11.136;2023-11-19T01:43:37;1.50;;;1.40;;
15254;SDS011;7730;49.610;11.136;2023-11-19T01:46:04;1.60;;;1.50;;
15254;SDS011;7730;49.610;11.136;2023-11-19T01:48:31;1.63;;;1.40;;
15254;SDS011;7730;49.610;11.136;2023-11-19T01:51:00;1.83;;;1.50;;
15254;SDS011;7730;49.610;11.136;2023-11-19T01:53:27;2.00;;;1.52;;
15254;SDS011;7730;49.610;11.136;2023-11-19T01:55:57;2.45;;;1.48;;
15254;SDS011;7730;49.610;11.136;2023-11-19T01:58:24;2.40;;;1.60;;
15254;SDS011;7730;49.610;11.136;2023-11-19T02:00:51;1.80;;;1.45;;
15254;SDS011;7730;49.610;11.136;2023-11-19T02:03:18;2.35;;;1.45;;
15254;SDS011;7730;49.610;11.136;2023-11-19T02:05:46;2.92;;;1.50;;
15254;SDS011;7730;49.610;11.136;2023-11-19T02:08:15;2.40;;;1.35;;
15254;SDS011;7730;49.610;11.136;2023-11-19T02:10:43;1.95;;;1.42;;
15254;SDS011;7730;49.610;11.136;2023-11-19T02:13:11;1.70;;;1.40;;
15254;SDS011;7730;49.610;11.136;2023-11-19T02:15:39;1.40;;;1.30;;
15254;SDS011;7730;49.610;11.136;2023-11-19T02:18:19;1.77;;;1.50;;
15254;SDS011;7730;49.610;11.136;2023-11-19T02:20:46;2.42;;;1.55;;
15254;SDS011;7730;49.610;11.136;2023-11-19T02:23:14;1.48;;;1.38;;
15254;SDS011;7730;49.610;11.136;2023-11-19T02:25:41;1.83;;;1.50;;
15254;SDS011;7730;49.610;11.136;2023-11-19T02:28:11;1.60;;;1.50;;
15254;SDS011;7730;49.610;11.136;2023-11-19T02:30:38;1.50;;;1.40;;
15254;SDS011;7730;49.610;11.136;2023-11-19T02:33:06;1.80;;;1.43;;
15254;SDS011;7730;49.610;11.136;2023-11-19T02:35:33;2.80;;;1.70;;
15254;SDS011;7730;49.610;11.136;2023-11-19T02:38:00;1.60;;;1.50;;
15254;SDS011;7730;49.610;11.136;2023-11-19T02:40:28;1.60;;;1.50;;
15254;SDS011;7730;49.610;11.136;2023-11-19T02:42:55;1.40;;;1.30;;
15254;SDS011;7730;49.610;11.136;2023-11-19T02:45:24;1.83;;;1.52;;
15254;SDS011;7730;49.610;11.136;2023-11-19T02:47:51;1.75;;;1.60;;
15254;SDS011;7730;49.610;11.136;2023-11-19T02:50:19;1.52;;;1.40;;
15254;SDS011;7730;49.610;11.136;2023-11-19T02:52:50;2.53;;;1.52;;
15254;SDS011;7730;49.610;11.136;2023-11-19T02:55:18;1.70;;;1.50;;
15254;SDS011;7730;49.610;11.136;2023-11-19T02:57:45;2.15;;;1.50;;
15254;SDS011;7730;49.610;11.136;2023-11-19T03:00:14;1.73;;;1.40;;
15254;SDS011;7730;49.610;11.136;2023-11-19T03:02:42;2.53;;;1.45;;
15254;SDS011;7730;49.610;11.136;2023-11-19T03:05:11;1.88;;;1.52;;
15254;SDS011;7730;49.610;11.136;2023-11-19T03:07:39;2.05;;;1.60;;
15254;SDS011;7730;49.610;11.136;2023-11-19T03:10:07;2.42;;;1.58;;
15254;SDS011;7730;49.610;11.136;2023-11-19T03:12:35;2.17;;;1.50;;
15254;SDS011;7730;49.610;11.136;2023-11-19T03:15:02;1.60;;;1.40;;
15254;SDS011;7730;49.610;11.136;2023-11-19T03:17:29;2.78;;;1.48;;
15254;SDS011;7730;49.610;11.136;2023-11-19T03:19:57;1.33;;;1.25;;
15254;SDS011;7730;49.610;11.136;2023-11-19T03:22:24;7.70;;;3.30;;
15254;SDS011;7730;49.610;11.136;2023-11-19T03:24:51;29.83;;;15.55;;
15254;SDS011;7730;49.610;11.136;2023-11-19T03:27:18;22.80;;;13.45;;
15254;SDS011;7730;49.610;11.136;2023-11-19T03:29:45;21.95;;;12.15;;
15254;SDS011;7730;49.610;11.136;2023-11-19T03:32:12;8.27;;;3.90;;
15254;SDS011;7730;49.610;11.136;2023-11-19T03:34:40;2.30;;;1.90;;
15254;SDS011;7730;49.610;11.136;2023-11-19T03:37:08;2.78;;;1.50;;
15254;SDS011;7730;49.610;11.136;2023-11-19T03:39:35;2.97;;;1.90;;
15254;SDS011;7730;49.610;11.136;2023-11-19T03:42:02;2.55;;;2.20;;
15254;SDS011;7730;49.610;11.136;2023-11-19T03:44:29;3.80;;;2.65;;
15254;SDS011;7730;49.610;11.136;2023-11-19T03:46:57;3.05;;;2.33;;
15254;SDS011;7730;49.610;11.136;2023-11-19T03:49:24;2.75;;;2.30;;
15254;SDS011;7730;49.610;11.136;2023-11-19T03:51:51;5.40;;;3.40;;
15254;SDS011;7730;49.610;11.136;2023-11-19T03:54:19;2.05;;;1.85;;
15254;SDS011;7730;49.610;11.136;2023-11-19T03:56:48;5.30;;;2.25;;
15254;SDS011;7730;49.610;11.136;2023-11-19T03:59:15;2.65;;;1.90;;
15254;SDS011;7730;49.610;11.136;2023-11-19T04:01:42;9.73;;;5.57;;
15254;SDS011;7730;49.610;11.136;2023-11-19T04:04:09;7.85;;;3.95;;
15254;SDS011;7730;49.610;11.136;2023-11-19T04:06:36;4.05;;;2.60;;
15254;SDS011;7730;49.610;11.136;2023-11-19T04:09:02;2.75;;;2.17;;
15254;SDS011;7730;49.610;11.136;2023-11-19T04:11:30;2.80;;;2.13;;
15254;SDS011;7730;49.610;11.136;2023-11-19T04:13:57;2.53;;;2.00;;
15254;SDS011;7730;49.610;11.136;2023-11-19T04:16:27;1.90;;;1.70;;
15254;SDS011;7730;49.610;11.136;2023-11-19T04:18:55;1.55;;;1.45;;
15254;SDS011;7730;49.610;11.136;2023-11-19T04:21:22;1.70;;;1.60;;
15254;SDS011;7730;49.610;11.136;2023-11-19T04:23:49;1.95;;;1.70;;
15254;SDS011;7730;49.610;11.136;2023-11-19T04:26:16;3.00;;;1.60;;
15254;SDS011;7730;49.610;11.136;2023-11-19T04:28:44;2.03;;;1.70;;
15254;SDS011;7730;49.610;11.136;2023-11-19T04:31:11;1.70;;;1.60;;
15254;SDS011;7730;49.610;11.136;2023-11-19T04:33:39;1.70;;;1.60;;
15254;SDS011;7730;49.610;11.136;2023-11-19T04:36:06;1.90;;;1.70;;
15254;SDS011;7730;49.610;11.136;2023-11-19T04:38:33;1.85;;;1.60;;
15254;SDS011;7730;49.610;11.136;2023-11-19T04:41:00;4.55;;;1.80;;
15254;SDS011;7730;49.610;11.136;2023-11-19T04:43:27;2.35;;;1.80;;
15254;SDS011;7730;49.610;11.136;2023-11-19T04:45:56;2.28;;;1.67;;
15254;SDS011;7730;49.610;11.136;2023-11-19T04:48:23;2.83;;;1.80;;
15254;SDS011;7730;49.610;11.136;2023-11-19T04:50:50;2.50;;;1.90;;
15254;SDS011;7730;49.610;11.136;2023-11-19T04:53:17;2.60;;;2.00;;
15254;SDS011;7730;49.610;11.136;2023-11-19T04:55:44;3.50;;;1.90;;
15254;SDS011;7730;49.610;11.136;2023-11-19T04:58:12;2.88;;;2.08;;
15254;SDS011;7730;49.610;11.136;2023-11-19T05:00:39;3.63;;;2.13;;
15254;SDS011;7730;49.610;11.136;2023-11-19T05:03:07;3.20;;;2.17;;
15254;SDS011;7730;49.610;11.136;2023-11-19T05:05:34;3.43;;;2.20;;
15254;SDS011;7730;49.610;11.136;2023-11-19T05:08:01;3.17;;;2.33;;
15254;SDS011;7730;49.610;11.136;2023-11-19T05:10:28;3.58;;;2.50;;
15254;SDS011;7730;49.610;11.136;2023-11-19T05:12:55;4.63;;;2.60;;
15254;SDS011;7730;49.610;11.136;2023-11-19T05:15:22;3.20;;;2.40;;
15254;SDS011;7730;49.610;11.136;2023-11-19T05:17:50;3.13;;;2.40;;
15254;SDS011;7730;49.610;11.136;2023-11-19T05:20:18;3.63;;;2.40;;
15254;SDS011;7730;49.610;11.136;2023-11-19T05:22:45;3.50;;;2.40;;
15254;SDS011;7730;49.610;11.136;2023-11-19T05:25:12;4.10;;;2.50;;
15254;SDS011;7730;49.610;11.136;2023-11-19T05:27:39;3.42;;;2.40;;
15254;SDS011;7730;49.610;11.136;2023-11-19T05:30:06;3.15;;;2.50;;
15254;SDS011;7730;49.610;11.136;2023-11-19T05:32:35;4.85;;;2.50;;
15254;SDS011;7730;49.610;11.136;2023-11-19T05:35:02;4.65;;;2.50;;
15254;SDS011;7730;49.610;11.136;2023-11-19T05:37:30;5.10;;;2.92;;
15254;SDS011;7730;49.610;11.136;2023-11-19T05:39:59;3.15;;;2.20;;
15254;SDS011;7730;49.610;11.136;2023-11-19T05:42:28;4.25;;;2.90;;
15254;SDS011;7730;49.610;11.136;2023-11-19T05:44:55;4.40;;;2.80;;
15254;SDS011;7730;49.610;11.136;2023-11-19T05:47:22;3.25;;;2.58;;
15254;SDS011;7730;49.610;11.136;2023-11-19T05:49:49;4.57;;;2.90;;
15254;SDS011;7730;49.610;11.136;2023-11-19T05:52:16;4.93;;;2.60;;
15254;SDS011;7730;49.610;11.136;2023-11-19T05:54:45;3.33;;;2.50;;
15254;SDS011;7730;49.610;11.136;2023-11-19T05:57:16;4.63;;;2.80;;
15254;SDS011;7730;49.610;11.136;2023-11-19T05:59:47;3.53;;;2.60;;
15254;SDS011;7730;49.610;11.136;2023-11-19T06:02:14;3.90;;;2.70;;
15254;SDS011;7730;49.610;11.136;2023-11-19T06:04:41;5.35;;;2.85;;
15254;SDS011;7730;49.610;11.136;2023-11-19T06:07:12;5.88;;;2.80;;
15254;SDS011;7730;49.610;11.136;2023-11-19T06:09:40;5.30;;;2.70;;
15254;SDS011;7730;49.610;11.136;2023-11-19T06:12:08;4.22;;;2.75;;
15254;SDS011;7730;49.610;11.136;2023-11-19T06:14:35;5.28;;;2.90;;
15254;SDS011;7730;49.610;11.136;2023-11-19T06:17:02;4.53;;;2.83;;
15254;SDS011;7730;49.610;11.136;2023-11-19T06:19:30;5.28;;;2.95;;
15254;SDS011;7730;49.610;11.136;2023-11-19T06:21:57;6.15;;;3.00;;
15254;SDS011;7730;49.610;11.136;2023-11-19T06:24:24;4.55;;;2.90;;
15254;SDS011;7730;49.610;11.136;2023-11-19T06:26:51;4.07;;;2.80;;
15254;SDS011;7730;49.610;11.136;2023-11-19T06:29:19;4.28;;;2.80;;
15254;SDS011;7730;49.610;11.136;2023-11-19T06:31:46;4.72;;;2.90;;
15254;SDS011;7730;49.610;11.136;2023-11-19T06:34:13;4.90;;;2.85;;
15254;SDS011;7730;49.610;11.136;2023-11-19T06:36:40;5.35;;;2.70;;
15254;SDS011;7730;49.610;11.136;2023-11-19T06:39:08;4.25;;;2.67;;
15254;SDS011;7730;49.610;11.136;2023-11-19T06:41:35;4.55;;;2.67;;
15254;SDS011;7730;49.610;11.136;2023-11-19T06:44:04;4.95;;;2.70;;
15254;SDS011;7730;49.610;11.136;2023-11-19T06:46:32;4.65;;;2.80;;
15254;SDS011;7730;49.610;11.136;2023-11-19T06:48:59;4.60;;;2.67;;
15254;SDS011;7730;49.610;11.136;2023-11-19T06:51:26;5.97;;;2.80;;
15254;SDS011;7730;49.610;11.136;2023-11-19T06:53:54;4.57;;;2.70;;
15254;SDS011;7730;49.610;11.136;2023-11-19T06:56:22;4.43;;;2.78;;
15254;SDS011;7730;49.610;11.136;2023-11-19T06:58:49;3.97;;;2.60;;
15254;SDS011;7730;49.610;11.136;2023-11-19T07:01:17;3.58;;;2.38;;
15254;SDS011;7730;49.610;11.136;2023-11-19T07:03:45;3.70;;;2.60;;
15254;SDS011;7730;49.610;11.136;2023-11-19T07:06:12;4.00;;;2.60;;
15254;SDS011;7730;49.610;11.136;2023-11-19T07:08:40;4.43;;;2.80;;
15254;SDS011;7730;49.610;11.136;2023-11-19T07:11:09;4.88;;;2.70;;
15254;SDS011;7730;49.610;11.136;2023-11-19T07:13:36;5.03;;;2.60;;
15254;SDS011;7730;49.610;11.136;2023-11-19T07:16:04;5.05;;;2.60;;
15254;SDS011;7730;49.610;11.136;2023-11-19T07:18:33;4.95;;;2.60;;
15254;SDS011;7730;49.610;11.136;2023-11-19T07:21:02;5.32;;;2.90;;
15254;SDS011;7730;49.610;11.136;2023-11-19T07:23:29;4.97;;;2.88;;
15254;SDS011;7730;49.610;11.136;2023-11-19T07:25:56;4.63;;;2.67;;
15254;SDS011;7730;49.610;11.136;2023-11-19T07:28:23;3.92;;;2.50;;
15254;SDS011;7730;49.610;11.136;2023-11-19T07:30:50;4.97;;;2.78;;
15254;SDS011;7730;49.610;11.136;2023-11-19T07:33:17;5.28;;;2.90;;
15254;SDS011;7730;49.610;11.136;2023-11-19T07:35:44;4.07;;;2.30;;
15254;SDS011;7730;49.610;11.136;2023-11-19T07:38:12;3.70;;;2.40;;
15254;SDS011;7730;49.610;11.136;2023-11-19T07:40:39;4.35;;;2.45;;
15254;SDS011;7730;49.610;11.136;2023-11-19T07:43:06;4.18;;;2.53;;
15254;SDS011;7730;49.610;11.136;2023-11-19T07:45:33;4.00;;;2.25;;
15254;SDS011;7730;49.610;11.136;2023-11-19T07:48:00;6.10;;;2.53;;
15254;SDS011;7730;49.610;11.136;2023-11-19T07:50:27;4.60;;;2.50;;
15254;SDS011;7730;49.610;11.136;2023-11-19T07:52:56;5.07;;;2.80;;
15254;SDS011;7730;49.610;11.136;2023-11-19T07:55:25;4.78;;;2.67;;
15254;SDS011;7730;49.610;11.136;2023-11-19T07:57:52;4.75;;;2.72;;
15254;SDS011;7730;49.610;11.136;2023-11-19T08:00:19;5.03;;;2.75;;
15254;SDS011;7730;49.610;11.136;2023-11-19T08:02:46;4.57;;;2.87;;
15254;SDS011;7730;49.610;11.136;2023-11-19T08:05:13;4.70;;;2.88;;
15254;SDS011;7730;49.610;11.136;2023-11-19T08:07:40;5.70;;;3.13;;
15254;SDS011;7730;49.610;11.136;2023-11-19T08:10:07;4.53;;;2.90;;
15254;SDS011;7730;49.610;11.136;2023-11-19T08:12:37;5.68;;;2.97;;
15254;SDS011;7730;49.610;11.136;2023-11-19T08:15:04;6.50;;;3.20;;
15254;SDS011;7730;49.610;11.136;2023-11-19T08:17:32;5.28;;;3.20;;
15254;SDS011;7730;49.610;11.136;2023-11-19T08:19:59;6.45;;;3.30;;
15254;SDS011;7730;49.610;11.136;2023-11-19T08:22:26;5.07;;;3.08;;
15254;SDS011;7730;49.610;11.136;2023-11-19T08:24:53;5.85;;;2.80;;
15254;SDS011;7730;49.610;11.136;2023-11-19T08:27:20;4.75;;;2.60;;
15254;SDS011;7730;49.610;11.136;2023-11-19T08:29:53;2.97;;;2.22;;
15254;SDS011;7730;49.610;11.136;2023-11-19T08:32:21;3.15;;;2.28;;
15254;SDS011;7730;49.610;11.136;2023-11-19T08:34:48;3.10;;;2.25;;
15254;SDS011;7730;49.610;11.136;2023-11-19T08:37:15;9.68;;;4.50;;
15254;SDS011;7730;49.610;11.136;2023-11-19T08:39:45;15.57;;;6.40;;
15254;SDS011;7730;49.610;11.136;2023-11-19T08:42:12;11.40;;;4.40;;
15254;SDS011;7730;49.610;11.136;2023-11-19T08:44:39;36.28;;;20.67;;
15254;SDS011;7730;49.610;11.136;2023-11-19T08:47:09;32.50;;;17.88;;
15254;SDS011;7730;49.610;11.136;2023-11-19T08:49:38;17.95;;;8.05;;
15254;SDS011;7730;49.610;11.136;2023-11-19T08:52:05;8.15;;;3.33;;
15254;SDS011;7730;49.610;11.136;2023-11-19T08:54:33;19.00;;;9.38;;
15254;SDS011;7730;49.610;11.136;2023-11-19T08:57:00;12.82;;;5.90;;
15254;SDS011;7730;49.610;11.136;2023-11-19T08:59:28;4.53;;;2.33;;
15254;SDS011;7730;49.610;11.136;2023-11-19T09:01:55;3.35;;;2.17;;
15254;SDS011;7730;49.610;11.136;2023-11-19T09:04:23;4.50;;;2.80;;
15254;SDS011;7730;49.610;11.136;2023-11-19T09:06:50;4.63;;;2.60;;
15254;SDS011;7730;49.610;11.136;2023-11-19T09:09:17;3.47;;;2.20;;
15254;SDS011;7730;49.610;11.136;2023-11-19T09:11:44;3.75;;;2.47;;
15254;SDS011;7730;49.610;11.136;2023-11-19T09:14:11;5.72;;;2.70;;
15254;SDS011;7730;49.610;11.136;2023-11-19T09:16:38;5.10;;;2.83;;
15254;SDS011;7730;49.610;11.136;2023-11-19T09:19:05;5.28;;;2.53;;
15254;SDS011;7730;49.610;11.136;2023-11-19T09:21:33;4.30;;;2.30;;
15254;SDS011;7730;49.610;11.136;2023-11-19T09:24:03;5.38;;;2.30;;
15254;SDS011;7730;49.610;11.136;2023-11-19T09:26:32;3.10;;;2.20;;
15254;SDS011;7730;49.610;11.136;2023-11-19T09:28:59;4.15;;;2.28;;
15254;SDS011;7730;49.610;11.136;2023-11-19T09:31:26;5.03;;;2.13;;
15254;SDS011;7730;49.610;11.136;2023-11-19T09:33:53;4.65;;;2.10;;
15254;SDS011;7730;49.610;11.136;2023-11-19T09:36:20;3.75;;;1.80;;
15254;SDS011;7730;49.610;11.136;2023-11-19T09:38:48;4.53;;;2.20;;
15254;SDS011;7730;49.610;11.136;2023-11-19T09:41:16;3.92;;;1.70;;
15254;SDS011;7730;49.610;11.136;2023-11-19T09:43:44;2.75;;;1.50;;
15254;SDS011;7730;49.610;11.136;2023-11-19T09:46:12;3.28;;;1.50;;
15254;SDS011;7730;49.610;11.136;2023-11-19T09:48:40;3.45;;;1.40;;
15254;SDS011;7730;49.610;11.136;2023-11-19T09:51:07;2.33;;;1.60;;
15254;SDS011;7730;49.610;11.136;2023-11-19T09:53:34;3.00;;;1.55;;
15254;SDS011;7730;49.610;11.136;2023-11-19T09:56:04;4.05;;;1.40;;
15254;SDS011;7730;49.610;11.136;2023-11-19T09:58:31;3.08;;;1.30;;
15254;SDS011;7730;49.610;11.136;2023-11-19T10:00:58;3.42;;;1.50;;
15254;SDS011;7730;49.610;11.136;2023-11-19T10:03:25;3.45;;;1.50;;
15254;SDS011;7730;49.610;11.136;2023-11-19T10:05:53;2.63;;;1.42;;
15254;SDS011;7730;49.610;11.136;2023-11-19T10:08:21;4.45;;;1.60;;
15254;SDS011;7730;49.610;11.136;2023-11-19T10:10:48;4.65;;;2.28;;
15254;SDS011;7730;49.610;11.136;2023-11-19T10:13:18;3.83;;;2.03;;
15254;SDS011;7730;49.610;11.136;2023-11-19T10:15:45;3.85;;;1.65;;
15254;SDS011;7730;49.610;11.136;2023-11-19T10:18:13;2.75;;;1.55;;
15254;SDS011;7730;49.610;11.136;2023-11-19T10:20:41;3.42;;;1.50;;
15254;SDS011;7730;49.610;11.136;2023-11-19T10:23:09;1.92;;;1.45;;
15254;SDS011;7730;49.610;11.136;2023-11-19T10:25:36;3.83;;;1.48;;
15254;SDS011;7730;49.610;11.136;2023-11-19T10:28:03;6.40;;;1.77;;
15254;SDS011;7730;49.610;11.136;2023-11-19T10:30:32;4.85;;;1.60;;
15254;SDS011;7730;49.610;11.136;2023-11-19T10:33:03;3.00;;;1.50;;
15254;SDS011;7730;49.610;11.136;2023-11-19T10:35:31;3.50;;;1.45;;
15254;SDS011;7730;49.610;11.136;2023-11-19T10:38:01;4.18;;;1.40;;
15254;SDS011;7730;49.610;11.136;2023-11-19T10:40:37;3.97;;;1.38;;
15254;SDS011;7730;49.610;11.136;2023-11-19T10:43:05;3.65;;;1.30;;
15254;SDS011;7730;49.610;11.136;2023-11-19T10:45:37;3.45;;;1.30;;
15254;SDS011;7730;49.610;11.136;2023-11-19T10:48:04;3.15;;;1.30;;
15254;SDS011;7730;49.610;11.136;2023-11-19T10:50:33;4.25;;;1.20;;
15254;SDS011;7730;49.610;11.136;2023-11-19T10:53:01;2.88;;;1.27;;
15254;SDS011;7730;49.610;11.136;2023-11-19T10:55:32;7.55;;;2.58;;
15254;SDS011;7730;49.610;11.136;2023-11-19T10:58:00;4.13;;;1.48;;
15254;SDS011;7730;49.610;11.136;2023-11-19T11:00:28;4.68;;;1.70;;
15254;SDS011;7730;49.610;11.136;2023-11-19T11:03:01;3.65;;;1.70;;
15254;SDS011;7730;49.610;11.136;2023-11-19T11:05:30;4.22;;;1.63;;
15254;SDS011;7730;49.610;11.136;2023-11-19T11:08:01;6.72;;;2.10;;
15254;SDS011;7730;49.610;11.136;2023-11-19T11:10:31;3.33;;;1.52;;
15254;SDS011;7730;49.610;11.136;2023-11-19T11:13:02;3.63;;;1.58;;
15254;SDS011;7730;49.610;11.136;2023-11-19T11:15:30;2.55;;;1.52;;
15254;SDS011;7730;49.610;11.136;2023-11-19T11:18:03;3.25;;;1.50;;
15254;SDS011;7730;49.610;11.136;2023-11-19T11:20:33;3.15;;;1.60;;
15254;SDS011;7730;49.610;11.136;2023-11-19T11:25:44;2.38;;;1.45;;
15254;SDS011;7730;49.610;11.136;2023-11-19T11:28:18;2.50;;;1.52;;
15254;SDS011;7730;49.610;11.136;2023-11-19T11:30:55;4.72;;;1.95;;
15254;SDS011;7730;49.610;11.136;2023-11-19T11:33:32;4.68;;;1.70;;
15254;SDS011;7730;49.610;11.136;2023-11-19T11:36:06;3.97;;;1.80;;
15254;SDS011;7730;49.610;11.136;2023-11-19T11:38:37;3.95;;;1.60;;
15254;SDS011;7730;49.610;11.136;2023-11-19T11:41:17;4.95;;;1.98;;
15254;SDS011;7730;49.610;11.136;2023-11-19T11:43:48;4.45;;;1.80;;
15254;SDS011;7730;49.610;11.136;2023-11-19T11:49:03;4.18;;;1.50;;
15254;SDS011;7730;49.610;11.136;2023-11-19T11:54:25;3.63;;;1.60;;
15254;SDS011;7730;49.610;11.136;2023-11-19T11:57:00;3.80;;;1.30;;
15254;SDS011;7730;49.610;11.136;2023-11-19T11:59:31;3.90;;;1.33;;
15254;SDS011;7730;49.610;11.136;2023-11-19T12:01:58;5.88;;;1.50;;
15254;SDS011;7730;49.610;11.136;2023-11-19T12:04:29;2.42;;;1.08;;
15254;SDS011;7730;49.610;11.136;2023-11-19T12:07:05;5.70;;;1.35;;
15254;SDS011;7730;49.610;11.136;2023-11-19T12:09:36;4.50;;;1.50;;
15254;SDS011;7730;49.610;11.136;2023-11-19T12:12:17;3.80;;;1.60;;
15254;SDS011;7730;49.610;11.136;2023-11-19T12:15:04;3.17;;;1.50;;
15254;SDS011;7730;49.610;11.136;2023-11-19T12:20:25;4.93;;;1.50;;
15254;SDS011;7730;49.610;11.136;2023-11-19T12:23:04;3.53;;;1.55;;
15254;SDS011;7730;49.610;11.136;2023-11-19T12:25:33;5.80;;;1.60;;
15254;SDS011;7730;49.610;11.136;2023-11-19T12:28:01;4.18;;;1.48;;
15254;SDS011;7730;49.610;11.136;2023-11-19T12:30:30;4.38;;;1.55;;
15254;SDS011;7730;49.610;11.136;2023-11-19T12:32:58;4.60;;;1.50;;
15254;SDS011;7730;49.610;11.136;2023-11-19T12:35:34;3.83;;;1.52;;
15254;SDS011;7730;49.610;11.136;2023-11-19T12:38:05;4.82;;;1.70;;
15254;SDS011;7730;49.610;11.136;2023-11-19T12:40:33;5.70;;;2.08;;
15254;SDS011;7730;49.610;11.136;2023-11-19T12:43:01;6.97;;;2.15;;
15254;SDS011;7730;49.610;11.136;2023-11-19T12:45:34;7.13;;;2.45;;
15254;SDS011;7730;49.610;11.136;2023-11-19T12:48:04;4.53;;;1.77;;
15254;SDS011;7730;49.610;11.136;2023-11-19T12:53:18;4.75;;;1.80;;
15254;SDS011;7730;49.610;11.136;2023-11-19T12:55:45;1.70;;;1.27;;
15254;SDS011;7730;49.610;11.136;2023-11-19T12:58:28;4.53;;;1.67;;
15254;SDS011;7730;49.610;11.136;2023-11-19T13:01:01;5.47;;;1.67;;
15254;SDS011;7730;49.610;11.136;2023-11-19T13:03:36;4.18;;;1.42;;
15254;SDS011;7730;49.610;11.136;2023-11-19T13:06:04;4.70;;;1.80;;
15254;SDS011;7730;49.610;11.136;2023-11-19T13:08:37;5.05;;;1.40;;
15254;SDS011;7730;49.610;11.136;2023-11-19T13:11:05;4.80;;;1.58;;
15254;SDS011;7730;49.610;11.136;2023-11-19T13:16:15;2.33;;;1.60;;
15254;SDS011;7730;49.610;11.136;2023-11-19T13:18:45;7.70;;;2.58;;
15254;SDS011;7730;49.610;11.136;2023-11-19T13:21:13;7.18;;;1.80;;
15254;SDS011;7730;49.610;11.136;2023-11-19T13:26:25;5.38;;;2.20;;
15254;SDS011;7730;49.610;11.136;2023-11-19T13:28:52;6.25;;;2.17;;
15254;SDS011;7730;49.610;11.136;2023-11-19T13:31:19;4.68;;;1.95;;
15254;SDS011;7730;49.610;11.136;2023-11-19T13:33:46;5.50;;;1.98;;
15254;SDS011;7730;49.610;11.136;2023-11-19T13:36:13;5.70;;;2.10;;
15254;SDS011;7730;49.610;11.136;2023-11-19T13:38:42;5.40;;;1.88;;
15254;SDS011;7730;49.610;11.136;2023-11-19T13:41:16;4.35;;;1.50;;
15254;SDS011;7730;49.610;11.136;2023-11-19T13:43:44;5.25;;;1.73;;
15254;SDS011;7730;49.610;11.136;2023-11-19T13:46:20;5.00;;;1.92;;
15254;SDS011;7730;49.610;11.136;2023-11-19T13:48:48;4.50;;;1.70;;
15254;SDS011;7730;49.610;11.136;2023-11-19T13:51:15;5.22;;;1.73;;
15254;SDS011;7730;49.610;11.136;2023-11-19T13:53:42;4.60;;;1.75;;
15254;SDS011;7730;49.610;11.136;2023-11-19T13:56:10;5.60;;;1.70;;
15254;SDS011;7730;49.610;11.136;2023-11-19T13:58:38;2.35;;;1.30;;
15254;SDS011;7730;49.610;11.136;2023-11-19T14:01:13;5.00;;;1.33;;
15254;SDS011;7730;49.610;11.136;2023-11-19T14:03:42;5.20;;;1.48;;
15254;SDS011;7730;49.610;11.136;2023-11-19T14:06:10;4.15;;;1.60;;
15254;SDS011;7730;49.610;11.136;2023-11-19T14:08:37;3.30;;;1.50;;
15254;SDS011;7730;49.610;11.136;2023-11-19T14:11:05;3.65;;;1.42;;
15254;SDS011;7730;49.610;11.136;2023-11-19T14:13:32;4.68;;;1.60;;
15254;SDS011;7730;49.610;11.136;2023-11-19T14:15:59;4.25;;;1.60;;
15254;SDS011;7730;49.610;11.136;2023-11-19T14:18:32;2.70;;;1.30;;
15254;SDS011;7730;49.610;11.136;2023-11-19T14:21:01;3.55;;;1.20;;
15254;SDS011;7730;49.610;11.136;2023-11-19T14:23:28;2.47;;;1.55;;
15254;SDS011;7730;49.610;11.136;2023-11-19T14:25:56;2.05;;;1.27;;
15254;SDS011;7730;49.610;11.136;2023-11-19T14:28:28;4.03;;;1.45;;
15254;SDS011;7730;49.610;11.136;2023-11-19T14:30:57;6.20;;;1.90;;
15254;SDS011;7730;49.610;11.136;2023-11-19T14:33:24;4.35;;;1.70;;
15254;SDS011;7730;49.610;11.136;2023-11-19T14:35:52;3.00;;;1.40;;
15254;SDS011;7730;49.610;11.136;2023-11-19T14:38:21;2.72;;;1.50;;
15254;SDS011;7730;49.610;11.136;2023-11-19T14:40:49;4.50;;;1.50;;
15254;SDS011;7730;49.610;11.136;2023-11-19T14:43:16;5.57;;;1.80;;
15254;SDS011;7730;49.610;11.136;2023-11-19T14:45:45;6.70;;;1.98;;
15254;SDS011;7730;49.610;11.136;2023-11-19T14:48:12;4.53;;;1.60;;
15254;SDS011;7730;49.610;11.136;2023-11-19T14:50:41;5.40;;;1.90;;
15254;SDS011;7730;49.610;11.136;2023-11-19T14:53:10;4.47;;;1.70;;
15254;SDS011;7730;49.610;11.136;2023-11-19T14:55:39;5.22;;;1.80;;
15254;SDS011;7730;49.610;11.136;2023-11-19T14:58:08;2.88;;;1.70;;
15254;SDS011;7730;49.610;11.136;2023-11-19T15:00:35;4.05;;;1.58;;
15254;SDS011;7730;49.610;11.136;2023-11-19T15:03:02;2.97;;;1.50;;
15254;SDS011;7730;49.610;11.136;2023-11-19T15:05:31;4.13;;;1.83;;
15254;SDS011;7730;49.610;11.136;2023-11-19T15:08:00;3.13;;;1.67;;
15254;SDS011;7730;49.610;11.136;2023-11-19T15:10:30;7.32;;;2.17;;
15254;SDS011;7730;49.610;11.136;2023-11-19T15:13:00;4.00;;;2.20;;